Time;durP1;ratioP1;P1;durP2;ratioP2;P2;SDS_P1;SDS_P2;PMS_P1;PMS_P2;Temp;Humidity;BMP_temperature;BMP_pressure;BME280_temperature;BME280_humidity;BME280_pressure;Samples;Min_cycle;Max_cycle;Signal;HPM_P1;HPM_P2
2023/11/01 00:00:16;;;;;;;7.53;3.45;;;12.30;99.90;;;12.46;85.56;99502.22;5026055;28;20069;-83
2023/11/01 00:02:44;;;;;;;12.52;3.55;;;12.30;99.90;;;12.46;85.39;99501.41;5008196;28;20053;-83
2023/11/01 00:05:11;;;;;;;15.38;4.10;;;12.20;99.90;;;12.27;85.37;99499.00;5007992;28;20074;-83
2023/11/01 00:07:39;;;;;;;14.52;3.85;;;12.20;99.90;;;12.25;86.24;99498.47;5024842;28;20069;-83
2023/11/01 00:10:08;;;;;;;7.50;3.10;;;12.20;99.90;;;12.30;86.43;99498.53;5008688;28;20050;-83
2023/11/01 00:12:37;;;;;;;10.70;3.30;;;12.10;99.90;;;12.34;86.27;99493.47;5007796;28;20065;-83
2023/11/01 00:15:06;;;;;;;13.90;3.63;;;12.20;99.90;;;12.34;86.41;99504.97;5025960;28;20038;-83
2023/11/01 00:17:34;;;;;;;11.10;3.53;;;12.20;99.90;;;12.32;86.50;99500.94;5026041;28;20117;-83
2023/11/01 00:20:01;;;;;;;6.70;3.05;;;12.20;99.90;;;12.33;86.62;99497.22;4991609;28;20074;-83
2023/11/01 00:22:29;;;;;;;12.25;3.83;;;12.20;99.90;;;12.37;86.57;99493.81;5007717;28;20069;-83
2023/11/01 00:24:57;;;;;;;10.32;3.60;;;12.20;99.90;;;12.42;86.41;99502.97;5008162;28;20042;-83
2023/11/01 00:27:24;;;;;;;15.27;3.63;;;12.20;99.90;;;12.43;86.32;99491.19;5026454;28;20050;-83
2023/11/01 00:29:54;;;;;;;10.05;3.22;;;12.30;99.90;;;12.43;86.43;99496.53;4992104;28;20468;-83
2023/11/01 00:32:21;;;;;;;10.10;3.47;;;12.20;99.90;;;12.45;86.33;99487.25;4977200;28;20050;-83
2023/11/01 00:34:49;;;;;;;10.20;3.40;;;12.20;99.90;;;12.46;85.99;99494.19;5024494;28;20463;-83
2023/11/01 00:37:17;;;;;;;11.52;3.70;;;12.30;99.90;;;12.43;86.02;99493.88;5008061;28;20073;-82
2023/11/01 00:39:44;;;;;;;12.52;3.40;;;12.30;99.90;;;12.36;86.13;99486.03;5008083;28;20065;-83
2023/11/01 00:42:10;;;;;;;7.72;3.50;;;12.20;99.90;;;12.38;86.36;99487.41;5008001;28;20104;-83
2023/11/01 00:44:38;;;;;;;11.40;3.30;;;12.30;99.90;;;12.35;86.34;99485.25;5009192;28;20073;-83
2023/11/01 00:47:08;;;;;;;11.85;3.75;;;12.20;99.90;;;12.33;86.33;99487.31;4991369;28;20072;-83
2023/11/01 00:49:36;;;;;;;13.10;3.80;;;12.20;99.90;;;12.33;86.81;99492.69;4991718;28;20038;-83
2023/11/01 00:52:04;;;;;;;10.45;3.25;;;12.20;99.90;;;12.36;86.75;99488.72;5007328;28;20038;-83
2023/11/01 00:54:33;;;;;;;14.65;3.65;;;12.20;99.90;;;12.40;86.60;99481.81;5008642;28;20053;-83
2023/11/01 00:57:00;;;;;;;11.15;3.33;;;12.30;99.90;;;12.44;86.43;99485.59;5007774;28;20054;-83
2023/11/01 00:59:28;;;;;;;14.05;3.08;;;12.30;99.90;;;12.45;86.41;99475.72;5024428;28;20110;-83
2023/11/01 01:01:55;;;;;;;8.35;2.88;;;12.30;99.90;;;12.48;86.37;99473.34;5007861;28;20076;-83
2023/11/01 01:04:24;;;;;;;11.40;3.38;;;12.30;99.90;;;12.49;86.23;99458.94;5007386;28;20468;-83
2023/11/01 01:06:52;;;;;;;10.98;2.88;;;12.30;99.90;;;12.51;86.30;99466.72;5029028;28;20046;-83
2023/11/01 01:09:20;;;;;;;8.07;3.22;;;12.30;99.90;;;12.52;86.21;99460.28;5010225;28;20038;-83
2023/11/01 01:11:47;;;;;;;12.02;3.67;;;12.30;99.90;;;12.53;85.81;99464.59;4995975;28;20077;-83
2023/11/01 01:14:17;;;;;;;12.77;3.10;;;12.30;99.90;;;12.51;86.08;99459.50;5012300;28;20041;-83
2023/11/01 01:16:46;;;;;;;10.35;3.08;;;12.30;99.90;;;12.53;86.31;99467.25;5010847;28;20038;-83
2023/11/01 01:19:13;;;;;;;13.00;3.25;;;12.30;99.90;;;12.54;85.80;99458.16;5029560;28;20077;-83
2023/11/01 01:21:43;;;;;;;13.52;3.28;;;12.30;99.90;;;12.53;85.66;99459.22;5026287;28;20508;-83
2023/11/01 01:24:11;;;;;;;8.90;3.00;;;12.30;99.90;;;12.51;85.46;99464.03;5028996;28;20046;-83
2023/11/01 01:26:38;;;;;;;13.70;3.40;;;12.30;99.90;;;12.49;85.61;99453.59;5029287;28;20540;-83
2023/11/01 01:29:06;;;;;;;9.88;3.28;;;12.30;99.90;;;12.46;85.69;99454.09;5010764;28;20046;-83
2023/11/01 01:31:37;;;;;;;11.50;3.92;;;12.30;99.90;;;12.45;85.77;99446.31;5028625;28;20061;-83
2023/11/01 01:34:05;;;;;;;8.98;3.65;;;12.30;99.90;;;12.46;85.96;99445.25;5028515;28;20038;-83
2023/11/01 01:36:33;;;;;;;9.93;3.08;;;12.30;99.90;;;12.47;86.01;99438.84;4995532;28;20048;-83
2023/11/01 01:39:02;;;;;;;6.40;2.85;;;12.30;99.90;;;12.52;85.81;99430.88;5011037;28;20041;-83
2023/11/01 01:41:29;;;;;;;11.27;3.63;;;12.30;99.90;;;12.50;85.68;99433.81;5010705;28;20042;-83
2023/11/01 01:43:57;;;;;;;10.65;3.22;;;12.30;99.90;;;12.52;85.31;99428.22;5011869;28;20402;-83
2023/11/01 01:46:27;;;;;;;7.10;2.70;;;12.30;99.90;;;12.53;85.59;99427.94;5011213;28;20049;-83
2023/11/01 01:48:55;;;;;;;16.60;3.45;;;12.30;99.90;;;12.54;85.27;99413.53;4995862;28;20049;-83
2023/11/01 01:51:23;;;;;;;7.75;2.70;;;12.30;99.90;;;12.55;85.34;99420.50;5012029;28;20060;-83
2023/11/01 01:53:52;;;;;;;9.40;3.22;;;12.30;99.90;;;12.52;85.16;99410.28;5011903;28;20048;-83
2023/11/01 01:56:21;;;;;;;8.48;3.00;;;12.30;99.90;;;12.53;85.02;99409.22;5030704;28;20056;-83
2023/11/01 01:58:50;;;;;;;9.50;2.83;;;12.30;99.90;;;12.55;85.22;99406.31;5013918;28;20065;-83
2023/11/01 02:01:20;;;;;;;7.03;2.95;;;12.30;99.90;;;12.58;85.30;99403.13;4996244;28;20086;-83
2023/11/01 02:03:47;;;;;;;10.45;2.45;;;12.30;99.90;;;12.59;85.07;99399.38;4995840;28;20045;-83
2023/11/01 02:06:18;;;;;;;9.70;2.97;;;12.40;99.90;;;12.56;84.82;99391.88;5014547;28;20517;-83
2023/11/01 02:11:29;;;;;;;;;;;12.30;99.90;;;12.56;84.72;99384.66;5009113;28;20054;-83
2023/11/01 02:13:57;;;;;;;12.40;2.83;;;12.30;99.90;;;12.53;84.57;99387.81;5028564;28;19921;-83
2023/11/01 02:16:35;;;;;;;8.77;2.88;;;12.30;99.90;;;12.54;84.82;99385.97;5028320;28;20049;-83
2023/11/01 02:19:11;;;;;;;8.60;2.55;;;12.30;99.90;;;12.56;84.56;99379.31;4994808;28;20069;-84
2023/11/01 02:21:49;;;;;;;7.25;2.75;;;12.30;99.90;;;12.57;84.70;99382.78;5011894;28;20038;-83
2023/11/01 02:24:24;;;;;;;8.65;2.58;;;12.30;99.90;;;12.58;84.38;99371.03;5011595;28;20046;-83
2023/11/01 02:26:55;;;;;;;10.63;2.70;;;12.30;99.90;;;12.58;84.40;99363.00;5028277;28;20046;-83
2023/11/01 02:29:26;;;;;;;6.77;2.90;;;12.30;99.90;;;12.59;84.12;99367.28;5027642;28;20057;-83
2023/11/01 02:31:55;;;;;;;8.65;2.55;;;12.30;99.90;;;12.58;83.99;99363.81;5010881;28;20042;-83
2023/11/01 02:34:23;;;;;;;12.85;2.40;;;12.30;99.90;;;12.57;83.72;99362.19;5018072;28;20041;-83
2023/11/01 02:36:53;;;;;;;8.45;3.60;;;12.30;99.90;;;12.56;83.90;99363.25;5010672;28;20092;-83
2023/11/01 02:39:25;;;;;;;8.05;2.88;;;12.30;99.90;;;12.56;83.73;99349.09;5010643;28;20034;-83
2023/11/01 02:41:54;;;;;;;9.07;2.60;;;12.30;99.90;;;12.54;83.74;99344.00;5010656;28;20057;-83
2023/11/01 02:44:22;;;;;;;7.90;2.70;;;12.20;99.90;;;12.54;83.79;99351.19;5009591;28;20050;-83
2023/11/01 02:46:56;;;;;;;10.73;2.85;;;12.30;99.90;;;12.53;84.21;99342.38;5009812;28;20136;-83
2023/11/01 02:49:24;;;;;;;15.82;2.60;;;12.30;99.90;;;12.54;83.91;99340.50;4993035;28;20049;-83
2023/11/01 02:51:52;;;;;;;8.07;2.47;;;12.30;99.90;;;12.52;84.27;99334.59;5027395;28;20076;-83
2023/11/01 02:54:20;;;;;;;8.85;2.33;;;12.30;99.90;;;12.52;83.86;99329.25;5027375;28;20046;-83
2023/11/01 02:56:59;;;;;;;9.55;2.60;;;12.30;99.90;;;12.52;83.92;99330.06;5009350;28;20056;-83
2023/11/01 02:59:30;;;;;;;8.38;2.28;;;12.30;99.90;;;12.51;83.97;99311.59;4975903;28;20117;-83
2023/11/01 03:01:58;;;;;;;10.50;2.70;;;12.30;99.90;;;12.51;84.18;99311.59;5026948;28;20042;-83
2023/11/01 03:04:25;;;;;;;5.35;2.42;;;12.30;99.90;;;12.52;84.36;99308.66;5019387;28;20369;-83
2023/11/01 03:06:53;;;;;;;8.20;2.40;;;12.30;99.90;;;12.51;84.25;99306.25;5027289;28;20077;-83
2023/11/01 03:09:21;;;;;;;6.25;2.20;;;12.30;99.90;;;12.52;84.40;99308.66;5026550;28;20038;-83
2023/11/01 03:11:51;;;;;;;6.45;2.00;;;12.30;99.90;;;12.52;84.35;99302.50;5025951;28;20038;-83
2023/11/01 03:14:22;;;;;;;8.18;2.80;;;12.30;99.90;;;12.53;84.05;99310.25;5026987;28;20042;-83
2023/11/01 03:16:50;;;;;;;9.75;2.15;;;12.30;99.90;;;12.54;84.15;99303.06;5026287;28;20054;-83
2023/11/01 03:19:17;;;;;;;10.07;2.55;;;12.30;99.90;;;12.48;84.22;99307.53;4998663;28;20066;-83
2023/11/01 03:21:54;;;;;;;7.07;2.38;;;12.20;99.90;;;12.48;84.52;99296.03;5008224;28;20038;-83
2023/11/01 03:24:25;;;;;;;7.80;2.20;;;12.20;99.90;;;12.42;84.57;99305.88;5008410;28;20229;-83
2023/11/01 03:26:54;;;;;;;8.35;2.15;;;12.20;99.90;;;12.41;84.87;99288.22;5007449;28;20056;-83
2023/11/01 03:29:23;;;;;;;8.98;2.10;;;12.20;99.90;;;12.42;84.96;99294.38;5009464;28;20038;-83
2023/11/01 03:31:51;;;;;;;8.40;2.15;;;12.20;99.90;;;12.45;85.17;99296.56;5008750;28;20053;-83
2023/11/01 03:34:24;;;;;;;6.28;1.98;;;12.30;99.90;;;12.41;85.31;99276.72;4993284;28;20046;-83
2023/11/01 03:36:51;;;;;;;6.97;1.70;;;12.20;99.90;;;12.36;85.28;99283.63;5026488;28;20058;-83
2023/11/01 03:39:20;;;;;;;7.88;2.00;;;12.20;99.90;;;12.42;85.36;99278.34;5026519;28;20065;-83
2023/11/01 03:41:48;;;;;;;7.72;1.88;;;12.20;99.90;;;12.43;85.78;99282.63;5026029;28;20061;-83
2023/11/01 03:44:16;;;;;;;5.88;1.65;;;12.20;99.90;;;12.45;85.51;99277.84;5008375;28;20049;-83
2023/11/01 03:46:45;;;;;;;8.43;1.90;;;12.20;99.90;;;12.42;85.69;99279.16;5007378;28;20072;-83
2023/11/01 03:49:13;;;;;;;6.80;1.92;;;12.20;99.90;;;12.40;85.69;99289.31;5008102;28;20034;-83
2023/11/01 03:51:41;;;;;;;8.95;2.25;;;12.20;99.90;;;12.43;85.90;99277.28;5026573;28;20038;-83
2023/11/01 03:54:09;;;;;;;5.45;1.70;;;12.20;99.90;;;12.44;85.74;99279.69;5025928;28;20052;-83
2023/11/01 03:56:42;;;;;;;5.18;1.83;;;12.20;99.90;;;12.46;86.04;99266.09;5009117;28;20073;-83
2023/11/01 03:59:10;;;;;;;6.00;1.73;;;12.20;99.90;;;12.48;85.78;99262.09;4993927;28;20070;-83
2023/11/01 04:01:39;;;;;;;6.25;1.88;;;12.30;99.90;;;12.51;85.89;99260.78;4993730;28;20046;-83
2023/11/01 04:04:07;;;;;;;7.22;1.50;;;12.20;99.90;;;12.49;85.83;99258.38;5027138;28;20050;-83
2023/11/01 04:06:40;;;;;;;4.30;1.60;;;12.30;99.90;;;12.47;86.05;99257.00;5025450;28;20057;-83
2023/11/01 04:09:13;;;;;;;8.20;2.15;;;12.30;99.90;;;12.48;85.89;99253.25;5026860;28;20065;-83
2023/11/01 04:11:51;;;;;;;8.07;1.98;;;12.20;99.90;;;12.42;85.94;99238.22;4979178;28;20117;-83
2023/11/01 04:14:22;;;;;;;5.63;1.73;;;12.30;99.90;;;12.38;86.01;99232.56;5009524;28;20084;-83
2023/11/01 04:16:57;;;;;;;6.43;1.83;;;12.20;99.90;;;12.32;86.37;99238.94;5010234;28;20110;-83
2023/11/01 04:19:32;;;;;;;9.55;2.00;;;12.20;99.90;;;12.23;86.60;99246.59;5027515;28;20038;-83
2023/11/01 04:22:06;;;;;;;6.30;1.63;;;12.20;99.90;;;12.22;87.57;99239.66;5009416;28;20114;-84
2023/11/01 04:24:34;;;;;;;7.65;1.70;;;12.10;99.90;;;12.23;87.87;99233.25;5027238;28;20049;-83
2023/11/01 04:27:02;;;;;;;6.93;1.85;;;12.20;99.90;;;12.30;87.85;99236.53;5026586;28;20053;-83
2023/11/01 04:29:30;;;;;;;7.00;1.80;;;12.20;99.90;;;12.32;87.77;99222.91;5027157;28;20046;-83
2023/11/01 04:32:14;;;;;;;4.97;1.50;;;12.20;99.90;;;12.33;88.07;99227.19;5027590;28;20075;-83
2023/11/01 04:34:50;;;;;;;6.88;1.88;;;12.20;99.90;;;12.36;87.80;99224.00;4994981;28;20056;-83
2023/11/01 04:37:39;;;;;;;4.00;1.50;;;12.20;99.90;;;12.17;88.36;99226.25;5012097;28;20097;-83
2023/11/01 04:40:11;;;;;;;8.32;1.70;;;12.20;99.90;;;12.20;89.15;99224.91;5032223;28;20046;-83
2023/11/01 04:42:44;;;;;;;7.40;2.03;;;12.20;99.90;;;12.18;89.33;99222.50;5031890;28;20049;-83
2023/11/01 04:45:20;;;;;;;5.50;2.08;;;12.20;99.90;;;12.22;89.41;99220.94;4999520;28;20050;-83
2023/11/01 04:47:53;;;;;;;5.18;1.75;;;12.20;99.90;;;12.25;89.63;99207.06;5016162;28;20046;-83
2023/11/01 04:50:26;;;;;;;7.38;1.80;;;12.20;99.90;;;12.28;89.45;99211.09;4998398;28;20038;-83
2023/11/01 04:52:57;;;;;;;6.47;1.70;;;12.20;99.90;;;12.21;89.63;99216.66;5013699;28;20100;-83
2023/11/01 04:55:33;;;;;;;7.72;2.28;;;12.20;99.90;;;12.18;90.61;99211.81;5015326;28;20049;-83
2023/11/01 04:58:02;;;;;;;7.93;2.30;;;12.20;99.90;;;12.25;90.91;99206.25;5030956;28;20394;-83
2023/11/01 05:00:30;;;;;;;8.95;1.83;;;12.20;99.90;;;12.26;90.47;99207.88;5029907;28;20096;-83
2023/11/01 05:03:04;;;;;;;4.68;1.60;;;12.20;99.90;;;12.26;90.36;99211.34;5010951;28;20076;-83
2023/11/01 05:05:42;;;;;;;6.38;1.85;;;12.20;99.90;;;12.28;90.51;99206.56;5012736;28;20073;-83
2023/11/01 05:08:10;;;;;;;4.97;1.85;;;12.30;99.90;;;12.32;90.59;99201.50;5029080;28;20110;-83
2023/11/01 05:10:38;;;;;;;6.25;1.73;;;12.30;99.90;;;12.35;90.59;99206.38;5030158;28;20049;-83
2023/11/01 05:13:15;;;;;;;4.32;1.75;;;12.30;99.90;;;12.29;90.87;99210.84;5028884;28;20125;-83
2023/11/01 05:15:43;;;;;;;4.85;1.70;;;12.30;99.90;;;12.28;91.50;99201.22;5009739;28;20088;-83
2023/11/01 05:18:13;;;;;;;5.57;1.75;;;12.30;99.90;;;12.29;91.20;99216.19;5010294;28;20046;-83
2023/11/01 05:20:41;;;;;;;4.93;2.03;;;12.20;99.90;;;12.21;91.89;99205.16;5027376;28;20437;-83
2023/11/01 05:23:09;;;;;;;7.03;1.90;;;12.20;99.90;;;12.27;92.03;99206.81;5010458;28;20103;-83
2023/11/01 05:25:40;;;;;;;7.70;2.00;;;12.30;99.90;;;12.27;91.78;99206.81;5009054;28;20050;-83
2023/11/01 05:28:10;;;;;;;6.70;2.00;;;12.30;99.90;;;12.22;92.15;99199.56;4994054;28;20073;-83
2023/11/01 05:30:38;;;;;;;5.88;1.88;;;12.30;99.90;;;12.23;92.49;99201.16;4994589;28;20050;-83
2023/11/01 05:33:06;;;;;;;5.50;1.90;;;12.30;99.90;;;12.32;92.32;99206.88;5009975;28;20114;-83
2023/11/01 05:35:36;;;;;;;6.85;1.77;;;12.30;99.90;;;12.32;92.07;99205.00;5028460;28;20056;-83
2023/11/01 05:38:07;;;;;;;4.60;2.20;;;12.30;99.90;;;12.30;92.19;99203.66;5010445;28;20591;-83
2023/11/01 05:40:37;;;;;;;6.90;2.17;;;12.30;99.90;;;12.27;92.47;99204.16;5009315;28;20072;-83
2023/11/01 05:43:18;;;;;;;5.80;1.95;;;12.20;99.90;;;12.28;92.49;99198.53;4994488;28;20057;-83
2023/11/01 05:45:46;;;;;;;6.50;1.85;;;12.30;99.90;;;12.30;92.38;99203.66;5012875;28;20041;-83
2023/11/01 05:48:15;;;;;;;6.20;1.77;;;12.30;99.90;;;12.26;92.67;99195.31;5027407;28;20053;-83
2023/11/01 05:50:50;;;;;;;4.70;1.80;;;12.30;99.90;;;12.35;92.58;99196.47;5026804;28;20061;-83
2023/11/01 05:53:21;;;;;;;8.10;1.90;;;12.30;99.90;;;12.37;92.35;99198.88;5027997;28;20072;-83
2023/11/01 05:55:49;;;;;;;4.78;1.83;;;12.30;99.90;;;12.35;92.00;99188.47;5027331;28;20041;-83
2023/11/01 05:58:17;;;;;;;6.68;2.00;;;12.30;99.90;;;12.32;92.11;99188.16;5027495;28;20065;-83
2023/11/01 06:00:45;;;;;;;9.55;2.08;;;12.30;99.90;;;12.38;92.26;99195.16;5027808;28;20056;-83
2023/11/01 06:03:15;;;;;;;6.03;1.70;;;12.30;99.90;;;12.42;91.98;99195.44;5028542;28;20041;-83
2023/11/01 06:06:01;;;;;;;7.60;2.35;;;12.30;99.90;;;12.44;91.51;99196.78;5025836;28;20105;-83
2023/11/01 06:08:31;;;;;;;4.88;1.85;;;12.40;99.90;;;12.46;91.57;99196.56;4990190;28;20081;-83
2023/11/01 06:11:04;;;;;;;9.88;2.10;;;12.40;99.90;;;12.43;91.44;99197.06;5022145;28;20118;-83
2023/11/01 06:13:31;;;;;;;6.10;2.03;;;12.40;99.90;;;12.43;91.35;99199.72;5027357;28;20046;-83
2023/11/01 06:16:04;;;;;;;8.00;2.50;;;12.40;99.90;;;12.46;91.34;99191.22;5027466;28;20049;-83
2023/11/01 06:18:35;;;;;;;5.80;1.60;;;12.40;99.90;;;12.47;91.01;99200.84;5026979;28;20046;-83
2023/11/01 06:21:06;;;;;;;11.55;2.10;;;12.40;99.90;;;12.46;91.27;99199.22;5008938;28;20046;-83
2023/11/01 06:23:38;;;;;;;8.93;2.17;;;12.40;99.90;;;12.49;90.92;99207.56;5026160;28;20057;-83
2023/11/01 06:26:08;;;;;;;7.85;2.05;;;12.40;99.90;;;12.52;90.95;99207.03;5009388;28;20069;-83
2023/11/01 06:28:37;;;;;;;5.57;2.10;;;12.40;99.90;;;12.55;90.59;99200.38;5026408;28;20463;-83
2023/11/01 06:31:09;;;;;;;7.32;1.77;;;12.40;99.90;;;12.57;90.37;99215.09;5006962;28;20049;-82
2023/11/01 06:33:37;;;;;;;7.28;2.00;;;12.50;99.90;;;12.51;90.14;99210.78;5010431;28;20050;-83
2023/11/01 06:36:11;;;;;;;9.88;1.92;;;12.40;99.90;;;12.45;90.65;99221.69;5025917;28;20041;-83
2023/11/01 06:38:43;;;;;;;10.75;2.60;;;12.40;99.90;;;12.43;90.78;99215.78;5008326;28;20046;-82
2023/11/01 06:41:11;;;;;;;14.10;3.55;;;12.40;99.90;;;12.46;90.86;99217.94;5004528;28;20045;-83
2023/11/01 06:43:46;;;;;;;9.98;3.65;;;12.40;99.90;;;12.44;90.85;99217.38;5025389;28;20493;-83
2023/11/01 06:46:14;;;;;;;11.65;3.10;;;12.40;99.90;;;12.46;90.83;99218.75;5009292;28;20106;-83
2023/11/01 06:48:43;;;;;;;7.85;2.47;;;12.40;99.90;;;12.48;90.89;99218.50;5008401;28;20042;-83
2023/11/01 06:51:24;;;;;;;15.82;2.70;;;12.40;99.90;;;12.53;90.89;99224.69;5025197;28;20045;-83
2023/11/01 06:53:53;;;;;;;11.82;3.40;;;12.50;99.90;;;12.54;90.41;99220.13;5008108;28;20433;-82
2023/11/01 06:56:21;;;;;;;11.55;4.35;;;12.50;99.90;;;12.54;90.57;99220.13;5025053;28;20057;-83
2023/11/01 06:58:49;;;;;;;8.40;2.97;;;12.50;99.90;;;12.59;90.64;99230.88;5007028;28;20042;-83
2023/11/01 07:01:17;;;;;;;8.82;2.33;;;12.50;99.90;;;12.53;90.17;99227.38;5005171;28;20072;-83
2023/11/01 07:03:45;;;;;;;10.13;2.20;;;12.50;99.90;;;12.50;90.53;99229.75;5006727;28;20679;-83
2023/11/01 07:06:16;;;;;;;8.55;1.95;;;12.50;99.90;;;12.54;90.66;99236.19;5006877;28;20034;-83
2023/11/01 07:08:46;;;;;;;10.18;2.03;;;12.50;99.90;;;12.54;90.53;99231.69;5002573;28;20051;-83
2023/11/01 07:11:18;;;;;;;;;;;12.50;99.90;;;12.54;90.69;99225.50;4988194;28;20048;-83
2023/11/01 07:13:48;;;;;;;7.70;2.37;;;12.50;99.90;;;12.49;91.22;99233.47;5024944;28;19997;-83
2023/11/01 07:16:16;;;;;;;8.38;2.40;;;12.50;99.90;;;12.52;91.14;99227.63;5025041;28;20080;-83
2023/11/01 07:18:47;;;;;;;9.95;2.38;;;12.50;99.90;;;12.53;91.04;99230.03;5025775;28;20049;-82
2023/11/01 07:21:15;;;;;;;11.30;2.72;;;12.50;99.90;;;12.60;91.00;99221.81;5006607;28;20041;-82
2023/11/01 07:23:43;;;;;;;10.77;2.60;;;12.60;99.90;;;12.65;90.72;99232.56;4999142;28;20037;-84
2023/11/01 07:26:13;;;;;;;12.77;2.67;;;12.60;99.90;;;12.69;90.58;99224.81;4989484;28;20053;-82
2023/11/01 07:28:41;;;;;;;9.00;2.33;;;12.60;99.90;;;12.69;90.51;99222.97;5004292;28;20080;-83
2023/11/01 07:31:09;;;;;;;10.52;2.28;;;12.60;99.90;;;12.66;90.32;99210.09;4998076;28;20424;-83
2023/11/01 07:33:37;;;;;;;6.97;2.15;;;12.60;99.90;;;12.67;90.51;99213.56;4997751;28;20056;-83
2023/11/01 07:36:08;;;;;;;8.23;1.73;;;12.60;99.90;;;12.73;90.52;99213.34;4991978;28;20041;-83
2023/11/01 07:38:36;;;;;;;8.85;2.38;;;12.70;99.90;;;12.78;90.41;99210.69;5003166;28;20104;-83
2023/11/01 07:41:05;;;;;;;10.55;2.40;;;12.70;99.90;;;12.82;90.38;99211.00;4992900;28;20375;-83
2023/11/01 07:43:34;;;;;;;10.15;2.42;;;12.70;99.90;;;12.85;90.62;99205.94;5014321;28;20042;-83
2023/11/01 07:46:02;;;;;;;9.27;2.35;;;12.80;99.90;;;12.88;90.54;99212.66;5000114;28;20100;-83
2023/11/01 07:48:30;;;;;;;10.13;2.00;;;12.80;99.90;;;12.88;90.35;99216.16;5014963;28;20096;-82
2023/11/01 07:50:58;;;;;;;8.68;2.00;;;12.80;99.90;;;12.90;90.41;99205.19;4997215;28;20113;-83
2023/11/01 07:53:25;;;;;;;9.80;2.33;;;12.80;99.90;;;12.92;90.55;99215.63;5012502;28;20058;-83
2023/11/01 07:55:53;;;;;;;11.30;2.30;;;12.80;99.90;;;12.96;90.46;99216.72;4995071;28;20064;-83
2023/11/01 07:58:20;;;;;;;10.90;2.00;;;12.90;99.90;;;12.91;90.11;99209.47;4996287;28;20050;-83
2023/11/01 08:00:51;;;;;;;8.48;2.22;;;12.90;99.90;;;12.94;90.13;99206.28;4999352;28;20472;-82
2023/11/01 08:03:20;;;;;;;7.88;2.05;;;12.90;99.90;;;12.99;90.34;99208.19;5001697;28;20045;-83
2023/11/01 08:05:47;;;;;;;10.02;2.17;;;13.00;99.90;;;12.95;90.19;99207.91;5001388;28;20049;-82
2023/11/01 08:08:15;;;;;;;11.32;2.28;;;12.90;99.90;;;12.95;90.06;99201.75;5019349;28;20038;-83
2023/11/01 08:10:43;;;;;;;12.45;2.22;;;13.00;99.90;;;12.96;89.72;99206.03;5020349;28;20085;-83
2023/11/01 08:13:11;;;;;;;7.80;2.10;;;13.00;99.90;;;13.00;90.35;99199.91;5009831;28;20045;-83
2023/11/01 08:15:40;;;;;;;6.97;2.30;;;13.00;99.90;;;13.04;90.35;99189.50;5025900;28;20065;-82
2023/11/01 08:18:10;;;;;;;8.30;2.25;;;13.00;99.90;;;13.01;90.25;99190.78;5016253;28;20049;-83
2023/11/01 08:20:37;;;;;;;10.30;1.92;;;13.00;99.90;;;13.03;89.87;99194.03;5012178;28;20038;-83
2023/11/01 08:23:06;;;;;;;10.63;2.10;;;13.00;99.90;;;13.06;89.99;99201.53;5028456;28;20109;-83
2023/11/01 08:25:33;;;;;;;10.65;2.20;;;13.00;99.90;;;13.09;90.05;99194.88;5018815;28;20092;-83
2023/11/01 08:28:01;;;;;;;8.63;1.92;;;13.10;99.90;;;13.13;89.82;99195.97;5008763;28;20038;-83
2023/11/01 08:30:29;;;;;;;8.63;2.38;;;13.10;99.90;;;13.08;89.34;99199.41;5027842;28;20044;-84
2023/11/01 08:32:57;;;;;;;8.13;2.00;;;13.10;99.90;;;13.08;89.05;99193.25;5028174;28;20092;-83
2023/11/01 08:35:26;;;;;;;10.38;1.92;;;13.10;99.90;;;13.09;88.96;99186.84;5009932;28;20061;-83
2023/11/01 08:37:54;;;;;;;10.40;2.10;;;13.10;99.90;;;13.09;88.56;99187.66;5020085;28;20076;-83
2023/11/01 08:40:22;;;;;;;7.40;1.80;;;13.10;99.90;;;13.13;88.63;99188.75;5028701;28;20540;-83
2023/11/01 08:42:51;;;;;;;13.45;2.20;;;13.20;99.90;;;13.15;88.48;99185.78;5013522;28;20046;-82
2023/11/01 08:45:19;;;;;;;8.43;2.00;;;13.20;99.90;;;13.18;88.50;99179.94;5010320;28;20555;-82
2023/11/01 08:47:46;;;;;;;11.40;2.00;;;13.30;99.90;;;13.22;88.68;99185.59;4995950;28;20065;-82
2023/11/01 08:50:14;;;;;;;6.50;2.30;;;13.30;99.90;;;13.25;89.75;99185.88;4963957;28;20540;-82
2023/11/01 08:52:45;;;;;;;11.15;2.53;;;13.30;99.90;;;13.25;88.80;99179.72;5031703;28;20437;-82
2023/11/01 08:55:14;;;;;;;8.65;2.20;;;13.40;99.90;;;13.30;88.70;99179.75;5013201;28;20123;-82
2023/11/01 08:57:44;;;;;;;12.48;2.47;;;13.40;99.90;;;13.34;88.97;99181.63;5011550;28;20137;-85
2023/11/01 09:00:14;;;;;;;11.15;2.00;;;13.50;99.90;;;13.38;89.06;99179.25;5010939;28;20049;-81
2023/11/01 09:02:43;;;;;;;9.45;2.05;;;13.50;99.90;;;13.38;88.47;99174.69;5012878;28;20129;-82
2023/11/01 09:05:10;;;;;;;8.57;1.98;;;13.50;99.90;;;13.38;87.19;99165.88;5008934;28;20050;-82
2023/11/01 09:07:38;;;;;;;10.00;2.20;;;13.50;99.90;;;13.45;88.04;99176.31;4991591;28;20053;-82
2023/11/01 09:10:11;;;;;;;8.02;1.90;;;13.60;99.90;;;13.42;85.67;99166.97;5013419;28;20045;-82
2023/11/01 09:12:40;;;;;;;9.85;2.10;;;13.60;99.90;;;13.46;85.67;99181.41;5029412;28;20611;-81
2023/11/01 09:15:10;;;;;;;12.52;2.30;;;13.60;99.90;;;13.47;87.02;99179.53;5031131;28;20041;-82
2023/11/01 09:17:38;;;;;;;12.18;2.10;;;13.60;99.90;;;13.45;86.54;99179.81;5013441;28;20033;-81
2023/11/01 09:20:08;;;;;;;10.75;1.75;;;13.60;99.90;;;13.45;85.97;99176.31;5028949;28;20053;-81
2023/11/01 09:22:36;;;;;;;9.02;1.90;;;13.60;99.90;;;13.46;85.98;99176.06;5010662;28;20088;-82
2023/11/01 09:25:06;;;;;;;11.07;2.17;;;13.60;99.90;;;13.49;86.61;99172.06;5026930;28;20052;-82
2023/11/01 09:27:35;;;;;;;10.18;2.00;;;13.60;99.90;;;13.51;86.63;99178.75;5028826;28;20607;-82
2023/11/01 09:30:04;;;;;;;10.23;2.33;;;13.60;99.90;;;13.51;86.36;99167.22;5027525;28;20077;-82
2023/11/01 09:32:32;;;;;;;9.98;2.35;;;13.60;99.90;;;13.52;86.44;99179.59;5028724;28;20052;-81
2023/11/01 09:34:59;;;;;;;9.05;2.28;;;13.60;99.90;;;13.55;85.95;99181.72;5013263;28;20045;-81
2023/11/01 09:37:27;;;;;;;10.18;2.05;;;13.70;99.90;;;13.55;86.21;99181.72;5028509;28;20866;-82
2023/11/01 09:39:55;;;;;;;7.55;1.83;;;13.70;99.90;;;13.56;85.51;99175.28;5027329;28;20080;-81
2023/11/01 09:42:23;;;;;;;7.55;1.77;;;13.70;99.90;;;13.57;85.47;99179.59;4992576;28;20050;-82
2023/11/01 09:44:57;;;;;;;9.57;1.77;;;13.70;99.90;;;13.56;85.53;99180.66;5011925;28;20065;-82
2023/11/01 09:47:26;;;;;;;7.70;1.70;;;13.70;99.90;;;13.57;85.22;99191.13;5009264;28;20065;-81
2023/11/01 09:49:56;;;;;;;9.48;1.92;;;13.70;99.90;;;13.62;85.36;99184.97;5009313;28;20100;-81
2023/11/01 09:52:28;;;;;;;7.40;1.90;;;13.80;99.90;;;13.65;86.17;99187.13;5009243;28;20473;-81
2023/11/01 09:54:57;;;;;;;8.05;1.75;;;13.80;99.90;;;13.67;85.55;99190.34;5030487;28;20057;-81
2023/11/01 09:57:27;;;;;;;22.20;2.13;;;13.80;99.90;;;13.69;84.96;99184.72;5011337;28;20054;-81
2023/11/01 09:59:58;;;;;;;10.30;2.42;;;13.90;99.90;;;13.70;84.80;99179.09;4996296;28;20069;-82
2023/11/01 10:02:29;;;;;;;10.60;1.80;;;13.90;99.90;;;13.72;85.17;99184.22;5029045;28;20049;-81
2023/11/01 10:04:58;;;;;;;9.43;2.08;;;13.80;99.90;;;13.72;84.84;99181.53;5013584;28;20046;-82
2023/11/01 10:07:25;;;;;;;9.25;1.85;;;13.90;99.90;;;13.70;84.03;99171.06;4991581;28;20070;-82
2023/11/01 10:09:55;;;;;;;7.68;1.67;;;13.90;99.90;;;13.67;82.75;99178.84;5028324;28;20065;-81
2023/11/01 10:12:23;;;;;;;8.45;2.17;;;13.90;99.90;;;13.72;83.70;99173.50;4977201;28;20068;-81
2023/11/01 10:14:51;;;;;;;7.13;1.75;;;13.80;99.90;;;13.72;83.82;99163.56;5010321;28;20045;-82
2023/11/01 10:17:20;;;;;;;7.32;1.52;;;13.90;99.90;;;13.69;83.17;99177.50;5027826;28;20053;-81
2023/11/01 10:19:48;;;;;;;5.70;1.60;;;13.80;99.90;;;13.68;82.52;99167.84;5010684;28;20052;-81
2023/11/01 10:22:17;;;;;;;7.93;1.88;;;13.80;99.90;;;13.64;82.16;99158.72;5028326;28;20053;-81
2023/11/01 10:24:45;;;;;;;8.45;1.80;;;13.80;99.90;;;13.63;82.19;99154.44;5010956;28;20054;-82
2023/11/01 10:27:12;;;;;;;7.82;1.80;;;13.80;99.90;;;13.64;82.16;99156.03;5028859;28;20049;-82
2023/11/01 10:29:47;;;;;;;10.68;2.10;;;13.80;99.90;;;13.70;83.17;99151.50;5029864;28;20042;-81